This is the latest recevied weather packets stored in our database for station/object CA3VLN-10. If no packets are shown the sender has not sent any weather packets the latest 10 day(s).
| Time | Temp. | Humidity | Pressure | Rain* | Wind** | Luminosity | Snow |
|---|---|---|---|---|---|---|---|
| 1787777947 | 19.44° C | 47% | 1002.6 hPa | - | - | - | - |
| 1787777047 | 20° C | 45% | 1002.2 hPa | - | - | - | - |
| 1787776147 | 20° C | 44% | 1001.8 hPa | - | - | - | - |
| 1787775247 | 20.56° C | 41% | 1002.1 hPa | - | - | - | - |
| 1787774347 | 20.56° C | 39% | 1002 hPa | - | - | - | - |
| 1787773447 | 21.11° C | 38% | 1001.7 hPa | - | - | - | - |
| 1787772547 | 21.11° C | 38% | 1001.9 hPa | - | - | - | - |
| 1787771647 | 21.67° C | 39% | 1001.9 hPa | - | - | - | - |
| 1787770747 | 21.11° C | 41% | 1001.9 hPa | - | - | - | - |
| 1787769847 | 20.56° C | 43% | 1002.2 hPa | - | - | - | - |
| 1787768947 | 20.56° C | 43% | 1002.3 hPa | - | - | - | - |
| 1787768047 | 20.56° C | 44% | 1002.4 hPa | - | - | - | - |
| 1787767146 | 20.56° C | 45% | 1002.5 hPa | - | - | - | - |
| 1787766246 | 20.56° C | 47% | 1002.2 hPa | - | - | - | - |
| 1787765346 | 20.56° C | 47% | 1002.7 hPa | - | - | - | - |
| 1787764446 | 20.56° C | 47% | 1003 hPa | - | - | - | - |
| 1787763546 | 20.56° C | 46% | 1003.1 hPa | - | - | - | - |
| 1787762646 | 21.11° C | 45% | 1003.7 hPa | - | - | - | - |
| 1787761746 | 21.11° C | 45% | 1003.3 hPa | - | - | - | - |
| 1787760846 | 21.11° C | 46% | 1002.8 hPa | - | - | - | - |
| 1787759946 | 21.11° C | 45% | 1003.4 hPa | - | - | - | - |
| 1787759045 | 21.11° C | 45% | 1003.5 hPa | - | - | - | - |
| 1787758145 | 21.11° C | 44% | 1003.1 hPa | - | - | - | - |
| 1787757245 | 21.11° C | 44% | 1003.1 hPa | - | - | - | - |
| 1787756345 | 21.11° C | 45% | 1003.1 hPa | - | - | - | - |
* Rain since midnight (hover to see other rain measurements)
** Current wind speed in m/s (hover to see current wind gust speed)